Lobo

Go HERE for most recent data if this page is not up to date.

Jump to table bottom
Date/Time Temp deg F RH % 24 Hr Snow (in) Snow Depth (in) H2O (in)
05/27 19:00 44.8 63 "NAN" 46.7 0.00
05/27 18:00 48.8 48 "NAN" 46.8 0.00
05/27 17:00 50.5 45 "NAN" 47.0 0.00
05/27 16:00 50.1 43 "NAN" 47.0 0.00
05/27 15:00 48.7 46 "NAN" 47.5 0.00
05/27 14:00 47.6 49 "NAN" 47.5 0.00
05/27 13:00 47.6 48 "NAN" 48.0 0.00
05/27 12:00 46.3 54 "NAN" 48.4 0.00
05/27 11:00 44.8 58 "NAN" 48.6 0.00
05/27 10:00 41.3 66 "NAN" 49.2 0.00
05/27 09:00 40.4 77 "NAN" 49.2 0.00
05/27 08:00 38.4 85 "NAN" 49.1 0.01
05/27 07:00 38.7 93 "NAN" 49.3 0.12
05/27 06:00 43.6 89 "NAN" 49.2 0.01
05/27 05:00 46.5 61 "NAN" 49.5 0.00
05/27 04:00 46.9 55 "NAN" 49.6 0.00
05/27 03:00 44.9 62 "NAN" 49.8 0.00
05/27 02:00 44.5 62 "NAN" 49.8 0.00
05/27 01:00 46.0 57 "NAN" 49.8 0.00
05/27 00:00 47.4 51 "NAN" 49.7 0.00
05/26 23:00 46.6 56 "NAN" 50.0 0.00
05/26 22:00 48.1 48 "NAN" 50.0 0.00
05/26 21:00 48.2 49 "NAN" 49.9 0.00
05/26 20:00 49.1 48 "NAN" 49.9 0.00
05/26 19:00 50.4 46 "NAN" 49.9 0.00
05/26 18:00 56.4 33 "NAN" 50.1 0.00
05/26 17:00 57.5 29 "NAN" 50.2 0.00
05/26 16:00 56.5 28 "NAN" 50.5 0.00
05/26 15:00 56.9 26 "NAN" 50.6 0.00
05/26 14:00 57.7 24 "NAN" 50.9 0.00
05/26 13:00 56.1 24 "NAN" 51.4 0.00
05/26 12:00 52.5 26 "NAN" 51.5 0.00
05/26 11:00 50.6 29 "NAN" 51.9 0.00
05/26 10:00 48.6 29 "NAN" 52.0 0.00
05/26 09:00 45.1 33 "NAN" 51.9 0.00
05/26 08:00 42.6 42 "NAN" 52.0 0.00
05/26 07:00 40.6 42 "NAN" 52.2 0.00
05/26 06:00 41.2 46 "NAN" 52.0 0.00
05/26 05:00 41.3 48 "NAN" 52.1 0.00
05/26 04:00 42.7 40 "NAN" 52.1 0.00
05/26 03:00 43.2 38 "NAN" 52.2 0.00
05/26 02:00 43.4 39 "NAN" 52.0 0.00
05/26 01:00 45.0 38 "NAN" 52.3 0.00
05/26 00:00 45.9 34 "NAN" 52.1 0.00
.